createdAt,value
2019-04-30T00:00:30.430Z,26.65
2019-04-30T00:03:06.587Z,30.50
2019-04-30T00:05:35.275Z,27.10
2019-04-30T00:08:05.839Z,28.52
2019-04-30T00:10:39.567Z,27.85
2019-04-30T00:13:10.543Z,32.95
2019-04-30T00:15:37.957Z,27.42
2019-04-30T00:18:08.517Z,28.87
2019-04-30T00:20:38.725Z,28.27
2019-04-30T00:23:09.127Z,28.00
2019-04-30T00:25:38.544Z,30.00
2019-04-30T00:28:08.848Z,25.95
2019-04-30T00:30:43.894Z,25.20
2019-04-30T00:33:15.206Z,25.48
2019-04-30T00:35:45.369Z,22.80
2019-04-30T00:38:15.941Z,29.02
2019-04-30T00:40:45.174Z,24.18
2019-04-30T00:43:15.448Z,27.62
2019-04-30T00:46:05.026Z,26.33
2019-04-30T00:48:36.463Z,24.92
2019-04-30T00:51:07.573Z,28.20
2019-04-30T00:53:36.070Z,27.73
2019-04-30T00:56:05.682Z,27.37
2019-04-30T00:58:35.704Z,22.95
2019-04-30T01:01:25.624Z,25.27
2019-04-30T01:04:05.126Z,23.70
2019-04-30T01:06:35.684Z,23.87
2019-04-30T01:09:08.410Z,26.23
2019-04-30T01:11:35.587Z,22.45
2019-04-30T01:14:05.088Z,27.00
2019-04-30T01:16:34.125Z,23.70
2019-04-30T01:19:05.762Z,28.60
2019-04-30T01:21:33.751Z,25.92
2019-04-30T01:24:03.901Z,23.52
2019-04-30T01:26:32.712Z,23.45
2019-04-30T01:29:03.710Z,24.75
2019-04-30T01:31:37.391Z,23.22
2019-04-30T01:34:05.235Z,26.65
2019-04-30T01:36:33.805Z,26.80
2019-04-30T01:39:02.827Z,24.60
2019-04-30T01:41:31.761Z,24.23
2019-04-30T01:44:03.799Z,25.60
2019-04-30T01:46:33.923Z,23.05
2019-04-30T01:49:05.574Z,26.50
2019-04-30T01:51:34.490Z,25.20
2019-04-30T01:54:03.558Z,22.90
2019-04-30T01:56:40.303Z,27.87
2019-04-30T01:59:19.073Z,27.50
2019-04-30T02:01:49.984Z,26.65
2019-04-30T02:04:19.614Z,25.25
2019-04-30T02:06:49.334Z,22.42
2019-04-30T02:09:20.684Z,20.37
2019-04-30T02:11:49.572Z,21.65
2019-04-30T02:14:18.974Z,20.72
2019-04-30T02:16:49.837Z,21.50
2019-04-30T02:19:19.240Z,22.15
2019-04-30T02:21:48.662Z,24.63
2019-04-30T02:24:19.218Z,23.15
2019-04-30T02:26:48.508Z,25.95
2019-04-30T02:29:19.145Z,22.37
2019-04-30T02:31:51.280Z,24.12
2019-04-30T02:34:22.337Z,21.50
2019-04-30T02:36:52.852Z,23.70
2019-04-30T02:39:21.958Z,23.22
2019-04-30T02:41:52.883Z,22.90
2019-04-30T02:44:21.993Z,24.90
2019-04-30T02:46:51.069Z,24.10
2019-04-30T02:49:20.550Z,24.07
2019-04-30T02:51:50.239Z,23.73
2019-04-30T02:54:23.959Z,25.77
2019-04-30T02:56:54.669Z,25.30
2019-04-30T02:59:23.766Z,28.98
2019-04-30T03:01:53.461Z,23.77
2019-04-30T03:04:22.624Z,24.98
2019-04-30T03:06:52.163Z,21.55
2019-04-30T03:09:21.215Z,27.20
2019-04-30T03:11:51.451Z,24.43
2019-04-30T03:14:20.520Z,23.45
2019-04-30T03:17:00.384Z,20.90
2019-04-30T03:19:31.177Z,21.85
2019-04-30T03:22:20.248Z,25.23
2019-04-30T03:24:50.071Z,27.40
2019-04-30T03:27:21.090Z,25.27
2019-04-30T03:29:52.231Z,32.30
2019-04-30T03:32:22.659Z,59.67
2019-04-30T03:34:52.814Z,75.15
2019-04-30T03:37:22.789Z,163.92
2019-04-30T03:39:51.889Z,167.15
2019-04-30T03:42:20.841Z,66.07
2019-04-30T03:44:49.919Z,61.58
2019-04-30T03:47:20.200Z,22.02
2019-04-30T03:49:49.872Z,26.57
2019-04-30T03:52:19.664Z,26.25
2019-04-30T03:54:49.566Z,24.02
2019-04-30T03:57:20.943Z,23.45
2019-04-30T03:59:50.172Z,28.90
2019-04-30T04:02:36.661Z,28.60
2019-04-30T04:05:23.500Z,30.92
2019-04-30T04:08:04.372Z,29.50
2019-04-30T04:10:34.887Z,30.80
2019-04-30T04:13:03.653Z,29.52
2019-04-30T04:15:34.222Z,29.70
2019-04-30T04:18:04.612Z,27.37
2019-04-30T04:20:34.247Z,22.60
2019-04-30T04:23:03.075Z,30.82
2019-04-30T04:25:32.437Z,35.15
2019-04-30T04:28:01.477Z,34.18
2019-04-30T04:30:30.528Z,27.35
2019-04-30T04:32:59.880Z,24.23
2019-04-30T04:35:29.820Z,34.30
2019-04-30T04:38:00.407Z,24.05
2019-04-30T04:40:30.258Z,25.32
2019-04-30T04:43:00.344Z,21.60
2019-04-30T04:45:30.506Z,25.55
2019-04-30T04:48:29.975Z,30.90
2019-04-30T04:51:00.705Z,25.35
2019-04-30T04:53:30.429Z,23.25
2019-04-30T04:56:00.002Z,22.60
2019-04-30T04:58:30.633Z,22.82
2019-04-30T05:00:59.836Z,22.27
2019-04-30T05:03:30.302Z,24.35
2019-04-30T05:06:02.270Z,24.35
2019-04-30T05:08:31.346Z,25.80
2019-04-30T05:11:02.257Z,26.27
2019-04-30T05:13:34.642Z,22.50
2019-04-30T05:16:03.094Z,24.12
2019-04-30T05:18:32.055Z,21.80
2019-04-30T05:21:02.216Z,26.52
2019-04-30T05:23:31.199Z,23.67
2019-04-30T05:26:00.254Z,25.43
2019-04-30T05:28:30.157Z,23.52
2019-04-30T05:31:00.366Z,19.12
2019-04-30T05:33:29.929Z,18.60
2019-04-30T05:35:59.432Z,20.95
2019-04-30T05:38:34.741Z,15.70
2019-04-30T05:41:03.550Z,21.15
2019-04-30T05:43:32.437Z,17.25
2019-04-30T05:46:01.428Z,19.10
2019-04-30T05:48:30.851Z,16.37
2019-04-30T05:51:21.148Z,14.40
2019-04-30T05:53:50.307Z,15.80
2019-04-30T05:56:19.375Z,14.93
2019-04-30T05:58:49.430Z,14.05
2019-04-30T06:01:19.615Z,13.43
2019-04-30T06:03:49.196Z,13.80
2019-04-30T06:06:19.327Z,11.60
2019-04-30T06:08:50.296Z,11.68
2019-04-30T06:11:20.910Z,10.40
2019-04-30T06:13:54.254Z,10.45
2019-04-30T06:16:24.732Z,15.38
2019-04-30T06:18:53.680Z,14.90
2019-04-30T06:21:22.927Z,12.85
2019-04-30T06:23:51.970Z,11.03
2019-04-30T06:26:22.054Z,12.73
2019-04-30T06:28:51.007Z,13.30
2019-04-30T06:31:31.848Z,16.60
2019-04-30T06:33:51.188Z,15.98
2019-04-30T06:36:20.661Z,14.03
2019-04-30T06:38:49.606Z,12.73
2019-04-30T06:41:19.798Z,12.88
2019-04-30T06:43:52.071Z,14.00
2019-04-30T06:46:21.051Z,13.78
2019-04-30T06:48:51.015Z,12.03
2019-04-30T06:51:20.971Z,10.45
2019-04-30T06:53:51.394Z,12.13
2019-04-30T06:56:21.480Z,10.68
2019-04-30T06:58:52.678Z,10.93
2019-04-30T07:01:23.152Z,9.00
2019-04-30T07:03:53.388Z,12.82
2019-04-30T07:06:29.614Z,11.12
2019-04-30T07:08:59.653Z,9.93
2019-04-30T07:11:31.636Z,10.65
2019-04-30T07:14:00.518Z,10.75
2019-04-30T07:16:29.954Z,9.28
2019-04-30T07:18:59.110Z,12.40
2019-04-30T07:21:31.612Z,16.82
2019-04-30T07:24:02.239Z,11.48
2019-04-30T07:26:31.146Z,11.65
2019-04-30T07:29:02.517Z,8.88
2019-04-30T07:31:30.555Z,10.95
2019-04-30T07:33:59.657Z,10.00
2019-04-30T07:36:43.389Z,11.75
2019-04-30T07:38:59.862Z,8.78
2019-04-30T07:41:30.888Z,8.15
2019-04-30T07:44:02.288Z,9.70
2019-04-30T07:46:35.328Z,9.83
2019-04-30T07:49:02.252Z,8.83
2019-04-30T07:51:37.125Z,7.97
2019-04-30T07:54:01.784Z,10.35
2019-04-30T07:56:37.532Z,9.38
2019-04-30T07:59:02.905Z,8.43
2019-04-30T08:01:34.481Z,9.38
2019-04-30T08:04:05.013Z,8.35
2019-04-30T08:06:35.664Z,7.45
2019-04-30T08:09:10.127Z,8.95
2019-04-30T08:11:43.447Z,9.33
2019-04-30T08:14:11.391Z,7.35
2019-04-30T08:16:40.347Z,11.97
2019-04-30T08:19:09.252Z,11.53
2019-04-30T08:21:38.737Z,7.45
2019-04-30T08:24:29.082Z,10.45
2019-04-30T08:26:59.080Z,8.25
2019-04-30T08:29:29.468Z,7.80
2019-04-30T08:31:59.373Z,10.30
2019-04-30T08:34:29.845Z,6.12
2019-04-30T08:36:59.428Z,8.05
2019-04-30T08:39:29.453Z,8.63
2019-04-30T08:42:00.000Z,7.83
2019-04-30T08:44:29.718Z,7.75
2019-04-30T08:47:01.698Z,8.50
2019-04-30T08:49:31.113Z,7.10
2019-04-30T08:52:01.775Z,11.40
2019-04-30T08:54:30.890Z,10.45
2019-04-30T08:56:59.723Z,9.13
2019-04-30T08:59:29.420Z,7.05
2019-04-30T09:02:00.014Z,8.20
2019-04-30T09:04:29.845Z,9.03
2019-04-30T09:06:59.977Z,10.98
2019-04-30T09:09:29.583Z,10.75
2019-04-30T09:11:59.161Z,9.73
2019-04-30T09:14:30.791Z,11.63
2019-04-30T09:16:59.691Z,9.53
2019-04-30T09:19:30.133Z,8.90
2019-04-30T09:21:59.137Z,8.90
2019-04-30T09:24:30.708Z,8.95
2019-04-30T09:26:59.083Z,5.55
2019-04-30T09:29:29.315Z,9.08
2019-04-30T09:31:59.454Z,8.60
2019-04-30T09:34:29.067Z,6.55
2019-04-30T09:36:59.940Z,7.60
2019-04-30T09:39:29.754Z,7.95
2019-04-30T09:41:59.691Z,7.72
2019-04-30T09:44:30.887Z,7.50
2019-04-30T09:46:59.861Z,8.05
2019-04-30T09:49:30.281Z,8.13
2019-04-30T09:52:00.522Z,9.88
2019-04-30T09:54:29.939Z,10.82
2019-04-30T09:57:00.470Z,5.85
2019-04-30T09:59:29.330Z,6.60
2019-04-30T10:01:58.145Z,6.60
2019-04-30T10:04:27.834Z,9.98
2019-04-30T10:06:59.535Z,8.43
2019-04-30T10:09:30.952Z,6.35
2019-04-30T10:12:09.436Z,8.10
2019-04-30T10:14:40.802Z,8.60
2019-04-30T10:17:21.260Z,6.55
2019-04-30T10:19:51.457Z,5.67
2019-04-30T10:22:21.858Z,5.80
2019-04-30T10:24:51.466Z,27.70
2019-04-30T10:27:20.402Z,8.78
2019-04-30T10:29:49.437Z,6.78
2019-04-30T10:32:18.770Z,8.18
2019-04-30T10:34:47.885Z,5.85
2019-04-30T10:37:18.756Z,6.20
2019-04-30T10:39:48.989Z,7.70
2019-04-30T10:42:17.882Z,7.37
2019-04-30T10:44:46.877Z,8.83
2019-04-30T10:47:16.073Z,6.65
2019-04-30T10:49:45.131Z,7.75
2019-04-30T10:52:14.269Z,6.83
2019-04-30T10:54:43.206Z,5.72
2019-04-30T10:57:12.118Z,5.20
2019-04-30T10:59:41.034Z,6.87
2019-04-30T11:02:10.036Z,5.72
2019-04-30T11:04:39.654Z,8.90
2019-04-30T11:07:09.299Z,4.90
2019-04-30T11:09:39.503Z,13.03
2019-04-30T11:12:09.465Z,3.62
2019-04-30T11:14:38.616Z,7.72
2019-04-30T11:17:09.574Z,5.22
2019-04-30T11:19:39.093Z,4.35
2019-04-30T11:22:08.364Z,3.95
2019-04-30T11:24:53.419Z,3.52
2019-04-30T11:27:11.225Z,2.60
2019-04-30T11:29:40.023Z,3.58
2019-04-30T11:32:11.354Z,5.30
2019-04-30T11:34:40.613Z,3.65
2019-04-30T11:37:09.644Z,3.12
2019-04-30T11:39:39.229Z,3.58
2019-04-30T11:42:08.261Z,6.22
2019-04-30T11:44:38.699Z,3.15
2019-04-30T11:47:13.751Z,3.70
2019-04-30T11:49:42.784Z,3.22
2019-04-30T11:52:11.671Z,2.77
2019-04-30T11:54:51.583Z,3.60
2019-04-30T11:57:14.398Z,3.50
2019-04-30T11:59:45.058Z,2.85
2019-04-30T12:02:15.735Z,5.42
2019-04-30T12:04:45.127Z,4.00
2019-04-30T12:07:21.809Z,3.90
2019-04-30T12:10:04.781Z,3.77
2019-04-30T12:12:33.624Z,2.95
2019-04-30T12:15:02.896Z,4.70
2019-04-30T12:17:32.226Z,6.85
2019-04-30T12:20:01.267Z,3.17
2019-04-30T12:22:32.205Z,3.27
2019-04-30T12:25:03.233Z,3.47
2019-04-30T12:27:31.819Z,4.85
2019-04-30T12:30:02.019Z,4.12
2019-04-30T12:32:30.950Z,3.40
2019-04-30T12:35:01.203Z,3.10
2019-04-30T12:37:29.860Z,2.05
2019-04-30T12:39:59.389Z,3.05
2019-04-30T12:42:28.705Z,3.87
2019-04-30T12:44:59.413Z,4.83
2019-04-30T12:47:29.667Z,3.45
2019-04-30T12:50:03.972Z,2.40
2019-04-30T12:52:34.177Z,4.05
2019-04-30T12:55:15.299Z,2.50
2019-04-30T12:57:39.934Z,4.83
2019-04-30T13:00:11.506Z,5.25
2019-04-30T13:02:40.352Z,6.45
2019-04-30T13:05:09.122Z,2.50
2019-04-30T13:07:40.126Z,2.50
2019-04-30T13:10:12.936Z,2.85
2019-04-30T13:12:41.116Z,4.72
2019-04-30T13:15:09.994Z,7.10
2019-04-30T13:17:40.910Z,3.25
2019-04-30T13:20:18.615Z,5.95
2019-04-30T13:22:40.134Z,5.42
2019-04-30T13:25:09.352Z,2.95
2019-04-30T13:27:39.623Z,2.85
2019-04-30T13:30:09.980Z,3.42
2019-04-30T13:32:53.090Z,5.17
2019-04-30T13:35:23.023Z,2.30
2019-04-30T13:37:53.594Z,4.12
2019-04-30T13:40:32.542Z,3.77
2019-04-30T13:43:02.794Z,4.65
2019-04-30T13:45:31.583Z,3.65
2019-04-30T13:48:01.070Z,4.65
2019-04-30T13:50:29.978Z,4.45
2019-04-30T13:52:58.881Z,18.12
2019-04-30T13:55:30.427Z,3.77
2019-04-30T13:57:57.898Z,5.62
2019-04-30T14:00:29.703Z,3.72
2019-04-30T14:03:14.020Z,4.37
2019-04-30T14:05:43.805Z,5.65
2019-04-30T14:08:13.824Z,3.30
2019-04-30T14:10:42.692Z,4.22
2019-04-30T14:13:12.304Z,6.05
2019-04-30T14:15:40.975Z,4.33
2019-04-30T14:18:09.793Z,3.30
2019-04-30T14:20:40.045Z,2.70
2019-04-30T14:23:10.731Z,6.58
2019-04-30T14:25:39.004Z,3.15
2019-04-30T14:28:08.964Z,4.12
2019-04-30T14:30:39.386Z,4.42
2019-04-30T14:33:09.473Z,17.10
2019-04-30T14:35:38.685Z,4.90
2019-04-30T14:38:09.027Z,8.18
2019-04-30T14:40:39.831Z,6.70
2019-04-30T14:43:10.144Z,5.05
2019-04-30T14:45:41.352Z,6.22
2019-04-30T14:48:22.597Z,5.05
2019-04-30T14:50:48.997Z,53.30
2019-04-30T14:53:19.469Z,5.12
2019-04-30T14:56:11.373Z,4.90
2019-04-30T14:58:56.131Z,7.08
2019-04-30T15:01:44.207Z,4.28
2019-04-30T15:04:13.072Z,7.37
2019-04-30T15:06:43.851Z,3.72
2019-04-30T15:09:13.549Z,5.17
2019-04-30T15:11:42.140Z,4.12
2019-04-30T15:14:10.906Z,4.45
2019-04-30T15:16:39.432Z,4.53
2019-04-30T15:19:07.970Z,4.50
2019-04-30T15:21:36.675Z,5.40
2019-04-30T15:24:09.444Z,4.00
2019-04-30T15:26:40.721Z,6.15
2019-04-30T15:29:14.429Z,6.45
2019-04-30T15:31:39.740Z,10.82
2019-04-30T15:34:13.232Z,9.48
2019-04-30T15:36:41.772Z,5.15
2019-04-30T15:39:14.653Z,5.90
2019-04-30T15:41:42.961Z,4.78
2019-04-30T15:44:11.310Z,6.30
2019-04-30T15:46:39.529Z,6.08
2019-04-30T15:49:07.906Z,4.53
2019-04-30T15:51:36.634Z,5.30
2019-04-30T15:54:05.321Z,5.45
2019-04-30T15:56:37.422Z,8.33
2019-04-30T15:59:23.915Z,4.92
2019-04-30T16:01:54.171Z,3.72
2019-04-30T16:04:28.550Z,5.22
2019-04-30T16:06:58.480Z,6.50
2019-04-30T16:09:31.890Z,7.08
2019-04-30T16:12:11.381Z,5.87
2019-04-30T16:14:41.839Z,6.65
2019-04-30T16:17:23.814Z,11.18
2019-04-30T16:19:53.617Z,11.80
2019-04-30T16:22:22.286Z,11.48
2019-04-30T16:24:51.063Z,9.98
2019-04-30T16:27:21.109Z,4.97
2019-04-30T16:29:50.013Z,5.87
2019-04-30T16:32:19.348Z,4.90
2019-04-30T16:34:49.887Z,5.78
2019-04-30T16:37:20.222Z,5.58
2019-04-30T16:39:49.800Z,5.08
2019-04-30T16:42:19.140Z,9.53
2019-04-30T16:44:48.068Z,12.63
2019-04-30T16:47:17.197Z,5.50
2019-04-30T16:49:46.113Z,6.83
2019-04-30T16:52:14.794Z,5.55
2019-04-30T16:54:43.471Z,6.28
2019-04-30T16:57:12.540Z,7.47
2019-04-30T16:59:42.614Z,6.78
2019-04-30T17:02:12.106Z,5.70
2019-04-30T17:04:42.463Z,7.92
2019-04-30T17:07:28.896Z,7.83
2019-04-30T17:10:00.933Z,5.60
2019-04-30T17:12:34.341Z,5.83
2019-04-30T17:15:14.135Z,6.78
2019-04-30T17:17:42.726Z,5.55
2019-04-30T17:20:10.973Z,7.85
2019-04-30T17:22:39.530Z,8.95
2019-04-30T17:25:07.961Z,8.95
2019-04-30T17:27:36.201Z,9.85
2019-04-30T17:30:09.108Z,11.00
2019-04-30T17:32:39.344Z,8.60
2019-04-30T17:35:09.076Z,11.22
2019-04-30T17:37:37.381Z,8.33
2019-04-30T17:40:05.834Z,10.20
2019-04-30T17:42:34.253Z,5.78
2019-04-30T17:45:02.703Z,7.30
2019-04-30T17:47:31.129Z,7.75
2019-04-30T17:49:59.609Z,7.47
2019-04-30T17:52:29.843Z,9.48
2019-04-30T17:54:59.488Z,7.40
2019-04-30T17:57:33.874Z,9.50
2019-04-30T17:59:59.290Z,9.58
2019-04-30T18:02:29.430Z,11.35
2019-04-30T18:04:57.810Z,7.15
2019-04-30T18:07:26.609Z,10.70
2019-04-30T18:09:55.128Z,10.43
2019-04-30T18:12:23.595Z,9.18
2019-04-30T18:14:52.121Z,7.60
2019-04-30T18:17:21.729Z,7.12
2019-04-30T18:19:54.577Z,9.90
2019-04-30T18:22:24.642Z,8.85
2019-04-30T18:24:59.176Z,10.72
2019-04-30T18:27:43.083Z,13.45
2019-04-30T18:30:02.626Z,12.13
2019-04-30T18:32:31.056Z,10.25
2019-04-30T18:34:59.502Z,15.00
2019-04-30T18:37:28.713Z,12.58
2019-04-30T18:40:00.024Z,18.55
2019-04-30T18:42:29.104Z,13.78
2019-04-30T18:44:57.459Z,15.90
2019-04-30T18:47:26.165Z,15.85
2019-04-30T18:49:54.596Z,15.32
2019-04-30T18:52:23.074Z,15.30
2019-04-30T18:54:51.572Z,14.70
2019-04-30T18:57:20.142Z,17.10
2019-04-30T18:59:48.529Z,15.98
2019-04-30T19:02:16.998Z,14.25
2019-04-30T19:04:45.440Z,16.20
2019-04-30T19:07:24.487Z,13.93
2019-04-30T19:10:00.633Z,15.60
2019-04-30T19:12:42.808Z,11.93
2019-04-30T19:15:41.304Z,10.23
2019-04-30T19:18:06.626Z,11.93
2019-04-30T19:20:38.469Z,10.23
2019-04-30T19:23:09.959Z,12.25
2019-04-30T19:25:38.641Z,9.83
2019-04-30T19:28:12.224Z,15.00
2019-04-30T19:30:38.893Z,10.45
2019-04-30T19:33:08.697Z,11.97
2019-04-30T19:35:37.291Z,11.08
2019-04-30T19:38:05.757Z,11.00
2019-04-30T19:40:34.577Z,13.10
2019-04-30T19:43:03.063Z,12.93
2019-04-30T19:45:31.469Z,14.15
2019-04-30T19:47:59.943Z,12.47
2019-04-30T19:50:28.386Z,12.40
2019-04-30T19:52:58.609Z,11.57
2019-04-30T19:55:28.611Z,11.33
2019-04-30T19:57:59.700Z,11.93
2019-04-30T20:00:29.113Z,10.25
2019-04-30T20:02:59.954Z,12.75
2019-04-30T20:05:28.655Z,11.57
2019-04-30T20:07:59.095Z,11.95
2019-04-30T20:10:28.763Z,13.80
2019-04-30T20:12:58.805Z,13.68
2019-04-30T20:15:29.643Z,13.58
2019-04-30T20:17:58.310Z,11.38
2019-04-30T20:20:30.640Z,9.73
2019-04-30T20:23:00.304Z,11.30
2019-04-30T20:25:29.149Z,12.07
2019-04-30T20:27:58.086Z,13.08
2019-04-30T20:30:29.162Z,12.35
2019-04-30T20:32:59.413Z,12.60
2019-04-30T20:35:28.456Z,11.63
2019-04-30T20:38:15.769Z,12.07
2019-04-30T20:40:57.814Z,15.38
2019-04-30T20:43:18.641Z,12.75
2019-04-30T20:45:47.478Z,13.40
2019-04-30T20:48:16.536Z,14.05
2019-04-30T20:50:47.552Z,13.70
2019-04-30T20:53:16.432Z,11.40
2019-04-30T20:55:45.269Z,12.60
2019-04-30T20:58:14.922Z,14.10
2019-04-30T21:00:44.375Z,12.63
2019-04-30T21:03:13.235Z,13.58
2019-04-30T21:05:41.901Z,12.47
2019-04-30T21:08:10.366Z,15.18
2019-04-30T21:10:39.687Z,15.23
2019-04-30T21:13:10.932Z,15.90
2019-04-30T21:15:39.536Z,17.48
2019-04-30T21:18:09.446Z,14.05
2019-04-30T21:20:38.799Z,21.45
2019-04-30T21:23:09.294Z,14.85
2019-04-30T21:25:38.694Z,16.55
2019-04-30T21:28:09.575Z,14.60
2019-04-30T21:30:37.350Z,18.50
2019-04-30T21:33:18.996Z,18.85
2019-04-30T21:35:58.655Z,20.17
2019-04-30T21:38:29.106Z,17.98
2019-04-30T21:41:00.898Z,19.17
2019-04-30T21:43:27.453Z,22.20
2019-04-30T21:45:55.937Z,22.95
2019-04-30T21:48:24.369Z,28.07
2019-04-30T21:50:52.816Z,26.93
2019-04-30T21:53:21.250Z,25.32
2019-04-30T21:55:49.822Z,22.90
2019-04-30T21:58:20.452Z,25.90
2019-04-30T22:00:54.355Z,24.20
2019-04-30T22:03:22.888Z,21.57
2019-04-30T22:05:51.366Z,24.50
2019-04-30T22:08:19.840Z,25.57
2019-04-30T22:10:48.294Z,21.80
2019-04-30T22:13:18.420Z,25.92
2019-04-30T22:15:47.982Z,22.02
2019-04-30T22:18:16.425Z,23.25
2019-04-30T22:20:44.890Z,27.73
2019-04-30T22:23:13.321Z,26.30
2019-04-30T22:25:41.777Z,23.38
2019-04-30T22:28:10.209Z,21.82
2019-04-30T22:30:38.664Z,20.92
2019-04-30T22:33:08.954Z,23.83
2019-04-30T22:35:55.125Z,21.60
2019-04-30T22:38:29.090Z,20.10
2019-04-30T22:40:58.835Z,20.27
2019-04-30T22:43:27.510Z,22.55
2019-04-30T22:45:59.457Z,19.45
2019-04-30T22:48:28.722Z,21.68
2019-04-30T22:50:57.278Z,19.12
2019-04-30T22:53:25.758Z,19.17
2019-04-30T22:55:54.192Z,25.20
2019-04-30T22:58:22.732Z,35.73
2019-04-30T23:00:52.827Z,32.63
2019-04-30T23:03:22.896Z,21.40
2019-04-30T23:05:51.371Z,22.32
2019-04-30T23:08:19.821Z,21.70
2019-04-30T23:10:48.358Z,24.72
2019-04-30T23:13:16.960Z,19.52
2019-04-30T23:15:45.406Z,19.85
2019-04-30T23:18:13.909Z,23.40
2019-04-30T23:20:42.357Z,30.85
2019-04-30T23:23:10.805Z,21.00
2019-04-30T23:25:39.245Z,54.73
2019-04-30T23:28:07.681Z,18.32
2019-04-30T23:30:36.120Z,16.70
2019-04-30T23:33:04.586Z,17.48
2019-04-30T23:35:33.021Z,20.43
2019-04-30T23:38:01.474Z,33.18
2019-04-30T23:40:33.206Z,39.63
2019-04-30T23:43:01.676Z,26.95
2019-04-30T23:45:30.101Z,23.35
2019-04-30T23:47:58.599Z,20.77
2019-04-30T23:50:27.133Z,18.30
2019-04-30T23:52:55.569Z,28.07
2019-04-30T23:55:24.024Z,21.12
2019-04-30T23:57:52.478Z,19.80
